Bracken, Texas
Current Conditions -  °F | °C
As of 9:25 PM on Saturday 22 Nov 2014 (Local Time) from KRND Reporting Station
Thunderstorm Thunderstorm  
Wind Chill: 63°   Ceiling: 16000
Heat Index: 63°   Visibility: 10mi
Dew Point: 55°   Wind: 6mph
Humidity: 77%   Direction: 330°NNW
Pressure: 29.75"   Gusts: NA
Location:  29.6654°N, 98.3191°W
Report Text: KRND 230325Z AUTO 33005KT 10SM VCTS SCT095 BKN160 17/13 A2975 RMK AO2 LTG DSNT W PRESFR
Loading
Personal Weather Stations






























Interactive Weather Map New forecast layout! Learn more

10-Day Weather Forecast

Advertisements
Track Severe Weather on mobile